Time;durP1;ratioP1;P1;durP2;ratioP2;P2;SDS_P1;SDS_P2;PMS_P1;PMS_P2;Temp;Humidity;BMP_temperature;BMP_pressure;BME280_temperature;BME280_humidity;BME280_pressure;Samples;Min_cycle;Max_cycle;Signal;HPM_P1;HPM_P2
2021/11/05 00:00:09;;;;;;;57.53;13.33;;;;;;;-145.18;100.00;60484.78;5061148;28;20021;-70
2021/11/05 00:02:35;;;;;;;51.77;13.37;;;;;;;-145.18;100.00;60484.78;5054485;28;20047;-71
2021/11/05 00:05:01;;;;;;;59.37;12.80;;;;;;;-145.18;100.00;60484.78;5060911;28;20519;-70
2021/11/05 00:07:26;;;;;;;57.50;13.93;;;;;;;-145.18;100.00;60484.78;5059354;28;20058;-70
2021/11/05 00:09:52;;;;;;;50.70;12.83;;;;;;;-145.18;100.00;60484.78;5057804;28;20036;-70
2021/11/05 00:12:17;;;;;;;56.20;13.07;;;;;;;-145.18;100.00;60484.78;5060664;28;20016;-70
2021/11/05 00:14:47;;;;;;;46.77;12.80;;;;;;;-145.18;100.00;60484.78;5055991;28;20075;-70
2021/11/05 00:17:13;;;;;;;51.27;12.80;;;;;;;-145.18;100.00;60484.78;5053785;28;20666;-72
2021/11/05 00:19:38;;;;;;;61.17;13.67;;;;;;;-145.18;100.00;60484.78;5059219;28;20052;-73
2021/11/05 00:22:05;;;;;;;49.63;12.33;;;;;;;-145.18;100.00;60484.78;5060807;28;20043;-73
2021/11/05 00:24:30;;;;;;;47.97;12.23;;;;;;;-145.18;100.00;60484.78;5059664;28;20082;-73
2021/11/05 00:26:56;;;;;;;56.30;13.17;;;;;;;-145.18;100.00;60484.78;5060241;28;20032;-72
2021/11/05 00:29:22;;;;;;;54.17;12.97;;;;;;;-145.18;100.00;60484.78;5058069;28;20434;-72
2021/11/05 00:31:47;;;;;;;59.70;13.60;;;;;;;-145.18;100.00;60484.78;5060155;28;20291;-72
2021/11/05 00:34:17;;;;;;;59.40;13.83;;;;;;;-145.18;100.00;60484.78;5060559;28;20028;-73
2021/11/05 00:36:43;;;;;;;58.07;13.30;;;;;;;-145.18;100.00;60484.78;5060066;28;20229;-72
2021/11/05 00:39:08;;;;;;;58.87;13.60;;;;;;;-145.18;100.00;60484.78;5059983;28;20127;-72
2021/11/05 00:41:34;;;;;;;61.63;13.70;;;;;;;-145.18;100.00;60484.78;5059386;28;20043;-73
2021/11/05 00:43:59;;;;;;;66.53;14.43;;;;;;;-145.18;100.00;60484.78;5057946;28;20464;-72
2021/11/05 00:46:24;;;;;;;63.17;13.13;;;;;;;-145.18;100.00;60484.78;5052183;28;20093;-72
2021/11/05 00:48:50;;;;;;;62.37;13.00;;;;;;;-145.18;100.00;60484.78;5059856;28;20030;-73
2021/11/05 00:51:15;;;;;;;60.87;13.27;;;;;;;-145.18;100.00;60484.78;5051329;28;20029;-73
2021/11/05 00:53:40;;;;;;;62.83;13.80;;;;;;;-145.18;100.00;60484.78;5056427;28;20100;-72
2021/11/05 00:56:06;;;;;;;60.50;13.30;;;;;;;-145.18;100.00;60484.78;5059465;28;20609;-72
2021/11/05 00:58:31;;;;;;;62.50;14.07;;;;;;;-145.18;100.00;60484.78;5059307;28;20193;-73
2021/11/05 01:00:57;;;;;;;61.23;13.70;;;;;;;-145.18;100.00;60484.78;5059359;28;20024;-72
2021/11/05 01:03:22;;;;;;;62.10;13.53;;;;;;;-145.18;100.00;60484.78;5059227;28;20036;-73
2021/11/05 01:05:47;;;;;;;61.30;13.47;;;;;;;-145.18;100.00;60484.78;5057106;28;20628;-73
2021/11/05 01:08:13;;;;;;;61.93;13.03;;;;;;;-145.18;100.00;60484.78;5058659;28;20032;-73
2021/11/05 01:10:39;;;;;;;65.73;14.07;;;;;;;-145.18;100.00;60484.78;5057517;28;20020;-72
2021/11/05 01:13:05;;;;;;;58.43;13.17;;;;;;;-145.18;100.00;60484.78;5058663;28;20024;-73
2021/11/05 01:15:31;;;;;;;59.37;13.17;;;;;;;-145.18;100.00;60484.78;5058866;28;20020;-72
2021/11/05 01:17:57;;;;;;;52.23;13.03;;;;;;;-145.18;100.00;60484.78;5059216;28;20158;-72
2021/11/05 01:20:22;;;;;;;64.23;13.10;;;;;;;-145.18;100.00;60484.78;5058745;28;20039;-73
2021/11/05 01:22:48;;;;;;;57.20;13.30;;;;;;;-145.18;100.00;60484.78;5059090;28;20028;-73
2021/11/05 01:25:15;;;;;;;59.23;14.67;;;;;;;-145.18;100.00;60484.78;5058567;28;20036;-73
2021/11/05 01:27:45;;;;;;;62.50;13.87;;;;;;;-145.18;100.00;60484.78;5057362;28;20399;-72
2021/11/05 01:30:12;;;;;;;66.53;13.40;;;;;;;-145.18;100.00;60484.78;5058931;28;20152;-73
2021/11/05 01:32:39;;;;;;;56.80;14.53;;;;;;;-145.18;100.00;60484.78;5058213;28;20508;-73
2021/11/05 01:35:05;;;;;;;68.63;13.47;;;;;;;-145.18;100.00;60484.78;5058766;28;20085;-72
2021/11/05 01:37:31;;;;;;;57.83;13.10;;;;;;;-145.18;100.00;60484.78;5058597;28;20029;-72
2021/11/05 01:39:56;;;;;;;61.90;14.17;;;;;;;-145.18;100.00;60484.78;5053748;28;20021;-72
2021/11/05 01:42:22;;;;;;;63.97;14.07;;;;;;;-145.18;100.00;60484.78;5058495;28;20024;-70
2021/11/05 01:44:48;;;;;;;67.10;13.63;;;;;;;-145.18;100.00;60484.78;5058581;28;20120;-70
2021/11/05 01:47:14;;;;;;;62.57;13.70;;;;;;;-145.18;100.00;60484.78;5056436;28;20554;-70
2021/11/05 01:49:39;;;;;;;57.07;13.83;;;;;;;-145.18;100.00;60484.78;5054822;28;20024;-70
2021/11/05 01:52:06;;;;;;;69.43;14.00;;;;;;;-145.18;100.00;60484.78;5057177;28;20529;-70
2021/11/05 01:54:32;;;;;;;53.87;12.50;;;;;;;-145.18;100.00;60484.78;5058895;28;20024;-70
2021/11/05 01:56:57;;;;;;;61.53;14.10;;;;;;;-145.18;100.00;60484.78;5058117;28;20610;-70
2021/11/05 01:59:31;;;;;;;53.23;13.10;;;;;;;-145.18;100.00;60484.78;5058191;28;20335;-70
2021/11/05 02:01:59;;;;;;;59.17;13.27;;;;;;;-145.18;100.00;60484.78;5055126;28;20066;-70
2021/11/05 02:04:26;;;;;;;60.83;14.07;;;;;;;-145.18;100.00;60484.78;5058062;28;20094;-70
2021/11/05 02:06:53;;;;;;;59.13;13.73;;;;;;;-145.18;100.00;60484.78;5054005;28;20025;-70
2021/11/05 02:09:23;;;;;;;66.77;13.50;;;;;;;-145.18;100.00;60484.78;5058389;28;20020;-70
2021/11/05 02:11:52;;;;;;;57.87;14.63;;;;;;;-145.18;100.00;60484.78;5058282;28;20012;-70
2021/11/05 02:14:21;;;;;;;61.20;14.47;;;;;;;-145.18;100.00;60484.78;5058769;28;20016;-70
2021/11/05 02:16:49;;;;;;;64.40;14.03;;;;;;;-145.18;100.00;60484.78;5028949;28;20300;-72
2021/11/05 02:19:17;;;;;;;72.37;14.10;;;;;;;-145.18;100.00;60484.78;5058291;28;20385;-72
2021/11/05 02:21:45;;;;;;;65.50;13.60;;;;;;;-145.18;100.00;60484.78;5058100;28;20024;-72
2021/11/05 02:24:11;;;;;;;64.90;13.67;;;;;;;-145.18;100.00;60484.78;5057355;28;20028;-72
2021/11/05 02:26:37;;;;;;;61.23;12.70;;;;;;;-145.18;100.00;60484.78;5061640;28;20020;-72
2021/11/05 02:29:03;;;;;;;62.57;12.87;;;;;;;-145.18;100.00;60484.78;5065013;28;20301;-72
2021/11/05 02:31:29;;;;;;;58.77;13.53;;;;;;;-145.18;100.00;60484.78;5064944;28;20453;-72
2021/11/05 02:33:55;;;;;;;66.47;13.53;;;;;;;-145.18;100.00;60484.78;5064884;28;20119;-73
2021/11/05 02:36:20;;;;;;;54.67;12.37;;;;;;;-145.18;100.00;60484.78;5064628;28;20488;-72
2021/11/05 02:38:46;;;;;;;65.83;13.20;;;;;;;-145.18;100.00;60484.78;5055737;28;20464;-72
2021/11/05 02:41:11;;;;;;;58.13;12.53;;;;;;;-145.18;100.00;60484.78;5065046;28;20024;-73
2021/11/05 02:43:37;;;;;;;64.47;12.90;;;;;;;-145.18;100.00;60484.78;5065280;28;20028;-73
2021/11/05 02:46:02;;;;;;;69.90;15.17;;;;;;;-145.18;100.00;60484.78;5065388;28;20029;-72
2021/11/05 02:48:28;;;;;;;67.57;14.27;;;;;;;-145.18;100.00;60484.78;5065267;28;20261;-73
2021/11/05 02:50:54;;;;;;;64.27;12.63;;;;;;;-145.18;100.00;60484.78;5058934;28;20582;-72
2021/11/05 02:53:20;;;;;;;63.40;12.53;;;;;;;-145.18;100.00;60484.78;5063112;28;20047;-72
2021/11/05 02:55:46;;;;;;;63.70;11.97;;;;;;;-145.18;100.00;60484.78;5064708;28;20268;-70
2021/11/05 02:58:11;;;;;;;62.90;13.50;;;;;;;-145.18;100.00;60484.78;5064369;28;20035;-70
2021/11/05 03:00:37;;;;;;;54.10;12.40;;;;;;;-145.18;100.00;60484.78;5064121;28;20028;-70
2021/11/05 03:03:04;;;;;;;52.27;12.00;;;;;;;-145.18;100.00;60484.78;5063294;28;20031;-69
2021/11/05 03:05:29;;;;;;;52.77;12.10;;;;;;;-145.18;100.00;60484.78;5064341;28;20059;-70
2021/11/05 03:07:55;;;;;;;52.80;12.43;;;;;;;-145.18;100.00;60484.78;5064624;28;20028;-70
2021/11/05 03:10:20;;;;;;;51.83;12.30;;;;;;;-145.18;100.00;60484.78;5064439;28;20405;-69
2021/11/05 03:12:46;;;;;;;48.07;12.47;;;;;;;-145.18;100.00;60484.78;5063721;28;20032;-70
2021/11/05 03:15:11;;;;;;;51.90;12.77;;;;;;;-145.18;100.00;60484.78;5056615;28;20028;-70
2021/11/05 03:17:38;;;;;;;60.30;12.80;;;;;;;-145.18;100.00;60484.78;5064399;28;20021;-70
2021/11/05 03:20:06;;;;;;;59.43;13.07;;;;;;;-145.18;100.00;60484.78;5064408;28;20393;-70
2021/11/05 03:22:32;;;;;;;57.50;12.60;;;;;;;-145.18;100.00;60484.78;5059487;28;20020;-70
2021/11/05 03:24:57;;;;;;;51.03;12.73;;;;;;;-145.18;100.00;60484.78;5054384;28;20461;-70
2021/11/05 03:27:23;;;;;;;50.77;12.00;;;;;;;-145.18;100.00;60484.78;5063051;28;20025;-70
2021/11/05 03:29:48;;;;;;;55.60;12.53;;;;;;;-145.18;100.00;60484.78;5064489;28;20180;-70
2021/11/05 03:32:14;;;;;;;52.53;12.50;;;;;;;-145.18;100.00;60484.78;5064045;28;20186;-70
2021/11/05 03:34:39;;;;;;;47.87;11.77;;;;;;;-145.18;100.00;60484.78;5064277;28;20028;-70
2021/11/05 03:37:05;;;;;;;41.73;10.63;;;;;;;-145.18;100.00;60484.78;5059606;28;20032;-70
2021/11/05 03:39:31;;;;;;;49.30;12.37;;;;;;;-145.18;100.00;60484.78;5060652;28;20032;-70
2021/11/05 03:41:57;;;;;;;51.27;11.77;;;;;;;-145.18;100.00;60484.78;5054662;28;20034;-70
2021/11/05 03:44:22;;;;;;;43.57;11.40;;;;;;;-145.18;100.00;60484.78;5059921;28;20115;-70
2021/11/05 03:46:48;;;;;;;42.57;10.37;;;;;;;-145.18;100.00;60484.78;5060751;28;20166;-70
2021/11/05 03:49:14;;;;;;;48.50;10.60;;;;;;;-145.18;100.00;60484.78;5058303;28;20056;-70
2021/11/05 03:51:39;;;;;;;51.73;11.07;;;;;;;-145.18;100.00;60484.78;5051267;28;20029;-70
2021/11/05 03:54:06;;;;;;;48.33;10.73;;;;;;;-145.18;100.00;60484.78;5061067;28;20303;-70
2021/11/05 03:56:32;;;;;;;40.97;10.47;;;;;;;-145.18;100.00;60484.78;5061544;28;20089;-69
2021/11/05 03:58:58;;;;;;;38.43;9.73;;;;;;;-145.18;100.00;60484.78;5061808;28;20017;-69
2021/11/05 04:01:23;;;;;;;41.40;10.30;;;;;;;-145.18;100.00;60484.78;5058701;28;20028;-70
2021/11/05 04:03:49;;;;;;;43.00;10.37;;;;;;;-145.18;100.00;60484.78;5060624;28;20124;-69
2021/11/05 04:06:16;;;;;;;46.87;9.80;;;;;;;-145.18;100.00;60484.78;5060920;28;20448;-69
2021/11/05 04:08:42;;;;;;;37.53;9.67;;;;;;;-145.18;100.00;60484.78;5060877;28;20221;-69
2021/11/05 04:11:08;;;;;;;41.37;10.00;;;;;;;-145.18;100.00;60484.78;5060234;28;20028;-70
2021/11/05 04:13:33;;;;;;;36.63;9.30;;;;;;;-145.18;100.00;60484.78;5053500;28;20024;-69
2021/11/05 04:15:58;;;;;;;36.60;9.37;;;;;;;-145.18;100.00;60484.78;5059553;28;20602;-69
2021/11/05 04:18:24;;;;;;;41.23;9.97;;;;;;;-145.18;100.00;60484.78;5053934;28;20219;-69
2021/11/05 04:20:50;;;;;;;38.33;9.30;;;;;;;-145.18;100.00;60484.78;5058390;28;20481;-69
2021/11/05 04:23:19;;;;;;;36.13;9.17;;;;;;;-145.18;100.00;60484.78;5060338;28;20012;-69
2021/11/05 04:25:45;;;;;;;36.40;9.50;;;;;;;-145.18;100.00;60484.78;5049138;28;20048;-69
2021/11/05 04:28:12;;;;;;;48.23;9.07;;;;;;;-145.18;100.00;60484.78;5060957;28;20503;-68
2021/11/05 04:30:37;;;;;;;38.53;8.97;;;;;;;-145.18;100.00;60484.78;5060188;28;20561;-69
2021/11/05 04:33:04;;;;;;;37.97;9.27;;;;;;;-145.18;100.00;60484.78;5059606;28;20095;-69
2021/11/05 04:35:29;;;;;;;38.20;8.23;;;;;;;-145.18;100.00;60484.78;5058917;28;20024;-68
2021/11/05 04:37:55;;;;;;;29.63;8.23;;;;;;;-145.18;100.00;60484.78;5060210;28;20502;-69
2021/11/05 04:40:20;;;;;;;34.47;9.37;;;;;;;-145.18;100.00;60484.78;5060112;28;20189;-69
2021/11/05 04:42:46;;;;;;;34.47;9.60;;;;;;;-145.18;100.00;60484.78;5059962;28;20089;-69
2021/11/05 04:45:11;;;;;;;36.53;8.83;;;;;;;-145.18;100.00;60484.78;5042156;28;20408;-69
2021/11/05 04:47:37;;;;;;;35.77;8.60;;;;;;;-145.18;100.00;60484.78;5057898;28;20020;-69
2021/11/05 04:50:05;;;;;;;32.50;9.17;;;;;;;-145.18;100.00;60484.78;5050631;28;20376;-69
2021/11/05 04:52:30;;;;;;;33.87;8.63;;;;;;;-145.18;100.00;60484.78;5059570;28;20201;-69
2021/11/05 04:54:56;;;;;;;32.63;8.73;;;;;;;-145.18;100.00;60484.78;5060165;28;20035;-68
2021/11/05 04:57:21;;;;;;;32.83;8.43;;;;;;;-145.18;100.00;60484.78;5060172;28;20024;-69
2021/11/05 04:59:47;;;;;;;28.93;7.93;;;;;;;-145.18;100.00;60484.78;5058913;28;20024;-69
2021/11/05 05:02:12;;;;;;;27.90;8.10;;;;;;;-145.18;100.00;60484.78;5059993;28;20393;-68
2021/11/05 05:04:37;;;;;;;29.13;8.17;;;;;;;-145.18;100.00;60484.78;5058054;28;20784;-69
2021/11/05 05:07:03;;;;;;;34.00;8.03;;;;;;;-145.18;100.00;60484.78;5059386;28;20528;-69
2021/11/05 05:09:29;;;;;;;33.87;9.37;;;;;;;-145.18;100.00;60484.78;5058082;28;20028;-69
2021/11/05 05:11:54;;;;;;;34.40;8.33;;;;;;;-145.18;100.00;60484.78;5058610;28;20404;-68
2021/11/05 05:14:20;;;;;;;30.20;8.93;;;;;;;-145.18;100.00;60484.78;5058022;28;20162;-69
2021/11/05 05:16:45;;;;;;;35.70;8.40;;;;;;;-145.18;100.00;60484.78;5057775;28;20194;-70
2021/11/05 05:19:11;;;;;;;30.93;7.57;;;;;;;-145.18;100.00;60484.78;5046875;28;20477;-70
2021/11/05 05:21:36;;;;;;;30.50;8.80;;;;;;;-145.18;100.00;60484.78;5060430;28;20050;-70
2021/11/05 05:24:02;;;;;;;29.00;9.00;;;;;;;-145.18;100.00;60484.78;5055936;28;20044;-70
2021/11/05 05:26:27;;;;;;;35.13;8.63;;;;;;;-145.18;100.00;60484.78;5051999;28;20105;-69
2021/11/05 05:28:53;;;;;;;33.17;8.60;;;;;;;-145.18;100.00;60484.78;5060218;28;20060;-71
2021/11/05 05:31:18;;;;;;;31.53;7.73;;;;;;;-145.18;100.00;60484.78;5060085;28;20436;-72
2021/11/05 05:33:44;;;;;;;29.33;8.63;;;;;;;-145.18;100.00;60484.78;5050962;28;20671;-72
2021/11/05 05:36:09;;;;;;;26.83;8.83;;;;;;;-145.18;100.00;60484.78;5060126;28;20066;-72
2021/11/05 05:38:41;;;;;;;29.87;8.80;;;;;;;-145.18;100.00;60484.78;5060731;28;20020;-72
2021/11/05 05:41:08;;;;;;;29.48;8.73;;;;;;;-145.18;100.00;60484.78;5060133;28;20165;-70
2021/11/05 05:43:33;;;;;;;29.53;8.70;;;;;;;-145.18;100.00;60484.78;5054236;28;20059;-71
2021/11/05 05:45:58;;;;;;;28.27;8.63;;;;;;;-145.18;100.00;60484.78;5059776;28;20688;-72
2021/11/05 05:48:27;;;;;;;30.10;9.07;;;;;;;-145.18;100.00;60484.78;5060479;28;20036;-71
2021/11/05 05:51:06;;;;;;;26.43;8.13;;;;;;;-145.18;100.00;60484.78;5060777;28;20027;-73
2021/11/05 05:53:31;;;;;;;28.87;8.80;;;;;;;-145.18;100.00;60484.78;5003913;28;20081;-71
2021/11/05 05:55:57;;;;;;;32.73;8.00;;;;;;;-145.18;100.00;60484.78;5061216;28;20032;-71
2021/11/05 05:58:22;;;;;;;29.70;8.17;;;;;;;-145.18;100.00;60484.78;5060795;28;20121;-71
2021/11/05 06:00:51;;;;;;;30.50;8.10;;;;;;;-145.18;100.00;60484.78;5061628;28;20020;-72
2021/11/05 06:03:16;;;;;;;28.80;8.90;;;;;;;-145.18;100.00;60484.78;5052987;28;20032;-71
2021/11/05 06:05:45;;;;;;;27.43;8.17;;;;;;;-145.18;100.00;60484.78;5058749;28;20526;-72
2021/11/05 06:08:10;;;;;;;27.20;8.27;;;;;;;-145.18;100.00;60484.78;5060035;28;20021;-71
2021/11/05 06:10:35;;;;;;;23.53;8.20;;;;;;;-145.18;100.00;60484.78;5059736;28;20476;-71
2021/11/05 06:13:01;;;;;;;31.23;8.63;;;;;;;-145.18;100.00;60484.78;5060434;28;20036;-71
2021/11/05 06:15:26;;;;;;;28.53;8.63;;;;;;;-145.18;100.00;60484.78;5040632;28;20282;-71
2021/11/05 06:17:52;;;;;;;29.37;8.37;;;;;;;-145.18;100.00;60484.78;5055875;28;20435;-70
2021/11/05 06:20:19;;;;;;;27.77;7.50;;;;;;;-145.18;100.00;60484.78;5057569;28;20404;-70
2021/11/05 06:22:45;;;;;;;27.27;7.10;;;;;;;-145.18;100.00;60484.78;5060694;28;20447;-69
2021/11/05 06:25:11;;;;;;;30.03;8.37;;;;;;;-145.18;100.00;60484.78;5047162;28;20107;-70
2021/11/05 06:27:36;;;;;;;23.97;7.13;;;;;;;-145.18;100.00;60484.78;5058341;28;20033;-70
2021/11/05 06:30:04;;;;;;;36.10;8.57;;;;;;;-145.18;100.00;60484.78;5058637;28;20028;-71
2021/11/05 06:32:29;;;;;;;25.53;7.87;;;;;;;-145.18;100.00;60484.78;5060673;28;20265;-71
2021/11/05 06:34:55;;;;;;;28.43;8.17;;;;;;;-145.18;100.00;60484.78;5053066;28;20150;-70
2021/11/05 06:37:20;;;;;;;29.67;7.87;;;;;;;-145.18;100.00;60484.78;5052849;28;20121;-71
2021/11/05 06:39:45;;;;;;;30.20;8.33;;;;;;;-145.18;100.00;60484.78;5050362;28;20068;-71
2021/11/05 06:42:13;;;;;;;27.20;7.73;;;;;;;-145.18;100.00;60484.78;5053087;28;20033;-71
2021/11/05 06:44:39;;;;;;;25.40;7.27;;;;;;;-145.18;100.00;60484.78;5054524;28;20178;-70
2021/11/05 06:47:04;;;;;;;29.90;7.53;;;;;;;-145.18;100.00;60484.78;5057473;28;20092;-70
2021/11/05 06:49:30;;;;;;;36.57;8.13;;;;;;;-145.18;100.00;60484.78;5056078;28;20404;-71
2021/11/05 06:51:55;;;;;;;28.50;7.63;;;;;;;-145.18;100.00;60484.78;5046076;28;20116;-70
2021/11/05 06:54:25;;;;;;;29.87;7.33;;;;;;;-145.18;100.00;60484.78;5045761;28;20032;-71
2021/11/05 06:56:51;;;;;;;31.07;7.73;;;;;;;-145.18;100.00;60484.78;5056762;28;20161;-71
2021/11/05 06:59:17;;;;;;;32.43;8.50;;;;;;;-145.18;100.00;60484.78;5055963;28;20040;-71
2021/11/05 07:01:43;;;;;;;34.03;8.10;;;;;;;-145.18;100.00;60484.78;5052958;28;20397;-71
2021/11/05 07:04:09;;;;;;;33.73;7.67;;;;;;;-145.18;100.00;60484.78;5053219;28;20182;-71
2021/11/05 07:06:36;;;;;;;28.73;8.87;;;;;;;-145.18;100.00;60484.78;5056716;28;20028;-71
2021/11/05 07:09:01;;;;;;;31.07;7.60;;;;;;;-145.18;100.00;60484.78;5057120;28;20032;-70
2021/11/05 07:11:27;;;;;;;37.80;8.30;;;;;;;-145.18;100.00;60484.78;5053241;28;20480;-70
2021/11/05 07:13:52;;;;;;;23.90;7.20;;;;;;;-145.18;100.00;60484.78;5059449;28;20044;-70
2021/11/05 07:16:18;;;;;;;32.40;7.17;;;;;;;-145.18;100.00;60484.78;5058670;28;20028;-70
2021/11/05 07:18:43;;;;;;;33.87;7.53;;;;;;;-145.18;100.00;60484.78;5060650;28;20067;-70
2021/11/05 07:21:11;;;;;;;43.43;7.93;;;;;;;-145.18;100.00;60484.78;5056815;28;20039;-71
2021/11/05 07:23:36;;;;;;;32.63;7.57;;;;;;;-145.18;100.00;60484.78;5059839;28;20271;-70
2021/11/05 07:26:03;;;;;;;30.90;8.03;;;;;;;-145.18;100.00;60484.78;5060218;28;20064;-71
2021/11/05 07:28:29;;;;;;;38.00;7.63;;;;;;;-145.18;100.00;60484.78;5059072;28;20036;-71
2021/11/05 07:30:54;;;;;;;37.57;8.57;;;;;;;-145.18;100.00;60484.78;5057044;28;20036;-70
2021/11/05 07:33:20;;;;;;;36.20;7.97;;;;;;;-145.18;100.00;60484.78;5059975;28;20393;-71
2021/11/05 07:35:46;;;;;;;28.57;7.30;;;;;;;-145.18;100.00;60484.78;5055150;28;20032;-71
2021/11/05 07:38:11;;;;;;;28.53;6.73;;;;;;;-145.18;100.00;60484.78;5060669;28;20611;-71
2021/11/05 07:40:37;;;;;;;27.10;5.90;;;;;;;-145.18;100.00;60484.78;5049368;28;20489;-71
2021/11/05 07:43:02;;;;;;;29.53;6.13;;;;;;;-145.18;100.00;60484.78;5058170;28;20467;-71
2021/11/05 07:45:28;;;;;;;23.07;5.97;;;;;;;-145.18;100.00;60484.78;5053846;28;20036;-70
2021/11/05 07:47:55;;;;;;;27.13;6.57;;;;;;;-145.18;100.00;60484.78;5059267;28;20044;-71
2021/11/05 07:50:22;;;;;;;19.63;5.73;;;;;;;-145.18;100.00;60484.78;5055288;28;20052;-69
2021/11/05 07:52:48;;;;;;;32.27;6.27;;;;;;;-145.18;100.00;60484.78;5050406;28;20037;-70
2021/11/05 07:55:13;;;;;;;26.13;6.50;;;;;;;-145.18;100.00;60484.78;5057978;28;20083;-71
2021/11/05 07:57:39;;;;;;;30.50;7.47;;;;;;;-145.18;100.00;60484.78;5059759;28;20072;-70
2021/11/05 08:00:11;;;;;;;29.13;7.43;;;;;;;-145.18;100.00;60484.78;5059555;28;20075;-70
2021/11/05 08:02:36;;;;;;;28.15;6.95;;;;;;;-145.18;100.00;60484.78;5057062;28;20435;-69
2021/11/05 08:05:02;;;;;;;24.37;6.03;;;;;;;-145.18;100.00;60484.78;5057552;28;20056;-70
2021/11/05 08:07:28;;;;;;;26.70;6.37;;;;;;;-145.18;100.00;60484.78;5058303;28;20031;-70
2021/11/05 08:09:53;;;;;;;19.57;5.50;;;;;;;-145.18;100.00;60484.78;5058099;28;20455;-70
2021/11/05 08:12:19;;;;;;;26.13;6.90;;;;;;;-145.18;100.00;60484.78;5059780;28;20027;-70
2021/11/05 08:14:45;;;;;;;22.67;7.13;;;;;;;-145.18;100.00;60484.78;5052853;28;20515;-70
2021/11/05 08:17:11;;;;;;;29.13;7.80;;;;;;;-145.18;100.00;60484.78;5059749;28;20050;-70
2021/11/05 08:19:36;;;;;;;26.03;7.10;;;;;;;-145.18;100.00;60484.78;5046402;28;20021;-70
2021/11/05 08:22:02;;;;;;;23.03;7.27;;;;;;;-145.18;100.00;60484.78;5055995;28;20090;-70
2021/11/05 08:24:28;;;;;;;21.07;6.57;;;;;;;-145.18;100.00;60484.78;5051237;28;20025;-70
2021/11/05 08:26:54;;;;;;;17.57;5.90;;;;;;;-145.18;100.00;60484.78;5057046;28;20119;-70
2021/11/05 08:29:20;;;;;;;16.83;5.80;;;;;;;-145.18;100.00;60484.78;5058998;28;20028;-70
2021/11/05 08:31:46;;;;;;;16.83;5.60;;;;;;;-145.18;100.00;60484.78;5055827;28;20035;-70
2021/11/05 08:34:11;;;;;;;16.90;6.00;;;;;;;-145.18;100.00;60484.78;5057921;28;20280;-71
2021/11/05 08:36:39;;;;;;;16.50;5.53;;;;;;;-145.18;100.00;60484.78;5058977;28;20032;-70
2021/11/05 08:39:05;;;;;;;14.23;5.47;;;;;;;-145.18;100.00;60484.78;5058575;28;20119;-70
2021/11/05 08:41:31;;;;;;;17.07;5.80;;;;;;;-145.18;100.00;60484.78;5057361;28;20123;-70
2021/11/05 08:43:56;;;;;;;14.33;6.23;;;;;;;-145.18;100.00;60484.78;5058134;28;20458;-70
2021/11/05 08:46:27;;;;;;;14.50;6.57;;;;;;;-145.18;100.00;60484.78;5057177;28;20642;-70
2021/11/05 08:48:57;;;;;;;15.90;6.30;;;;;;;-145.18;100.00;60484.78;5058260;28;20281;-71
2021/11/05 08:51:24;;;;;;;16.00;5.80;;;;;;;-145.18;100.00;60484.78;5052500;28;20042;-71
2021/11/05 08:53:49;;;;;;;16.43;6.93;;;;;;;-145.18;100.00;60484.78;5058814;28;20032;-71
2021/11/05 08:56:16;;;;;;;16.70;6.00;;;;;;;-145.18;100.00;60484.78;5057766;28;20039;-71
2021/11/05 08:58:43;;;;;;;16.20;5.33;;;;;;;-145.18;100.00;60484.78;5051865;28;20237;-70
2021/11/05 09:01:09;;;;;;;21.57;6.87;;;;;;;-145.18;100.00;60484.78;5057366;28;20036;-70
2021/11/05 09:03:35;;;;;;;13.33;5.67;;;;;;;-145.18;100.00;60484.78;5057572;28;20336;-70
2021/11/05 09:06:02;;;;;;;13.37;5.00;;;;;;;-145.18;100.00;60484.78;5058048;28;20413;-72
2021/11/05 09:08:30;;;;;;;12.67;4.93;;;;;;;-145.18;100.00;60484.78;5056911;28;20293;-72
2021/11/05 09:10:57;;;;;;;12.37;4.77;;;;;;;-145.18;100.00;60484.78;5056974;28;20113;-71
2021/11/05 09:13:22;;;;;;;13.57;4.60;;;;;;;-145.18;100.00;60484.78;5057732;28;20024;-70
2021/11/05 09:15:48;;;;;;;10.67;4.50;;;;;;;-145.18;100.00;60484.78;5057183;28;20039;-70
2021/11/05 09:18:13;;;;;;;11.70;4.27;;;;;;;-145.18;100.00;60484.78;5057488;28;20232;-70
2021/11/05 09:20:39;;;;;;;14.37;5.43;;;;;;;-145.18;100.00;60484.78;5052143;28;20191;-71
2021/11/05 09:23:20;;;;;;;13.40;5.23;;;;;;;-145.18;100.00;60484.78;5055148;28;20031;-75
2021/11/05 09:25:45;;;;;;;14.50;4.67;;;;;;;-145.18;100.00;60484.78;5058692;28;20036;-72
2021/11/05 09:28:10;;;;;;;11.03;4.97;;;;;;;-145.18;100.00;60484.78;5057465;28;20024;-72
2021/11/05 09:30:36;;;;;;;12.23;5.03;;;;;;;-145.18;100.00;60484.78;5033457;28;20040;-72
2021/11/05 09:33:02;;;;;;;10.37;3.93;;;;;;;-145.18;100.00;60484.78;5051898;28;20355;-73
2021/11/05 09:35:27;;;;;;;10.37;3.67;;;;;;;-145.18;100.00;60484.78;5055004;28;20055;-72
2021/11/05 09:37:54;;;;;;;9.20;3.40;;;;;;;-145.18;100.00;60484.78;5057331;28;20182;-72
2021/11/05 09:40:22;;;;;;;12.90;3.73;;;;;;;-145.18;100.00;60484.78;5056660;28;20473;-72
2021/11/05 09:42:50;;;;;;;9.80;3.90;;;;;;;-145.18;100.00;60484.78;5055608;28;20036;-72
2021/11/05 09:45:18;;;;;;;7.80;3.10;;;;;;;-145.18;100.00;60484.78;5056990;28;20068;-73
2021/11/05 09:47:44;;;;;;;7.00;3.10;;;;;;;-145.18;100.00;60484.78;5056880;28;20559;-73
2021/11/05 09:50:12;;;;;;;6.27;2.80;;;;;;;-145.18;100.00;60484.78;5055331;28;20056;-72
2021/11/05 09:52:39;;;;;;;7.03;2.77;;;;;;;-145.18;100.00;60484.78;5056314;28;20028;-72
2021/11/05 09:55:06;;;;;;;7.57;2.63;;;;;;;-145.18;100.00;60484.78;5056433;28;20036;-72
2021/11/05 09:57:31;;;;;;;6.10;2.43;;;;;;;-145.18;100.00;60484.78;5053914;28;20040;-72
2021/11/05 09:59:58;;;;;;;6.20;2.97;;;;;;;-145.18;100.00;60484.78;5053642;28;20365;-72
2021/11/05 10:02:24;;;;;;;6.73;2.50;;;;;;;-145.18;100.00;60484.78;5056150;28;20508;-72
2021/11/05 10:04:56;;;;;;;6.77;2.93;;;;;;;-145.18;100.00;60484.78;5054664;28;20052;-72
2021/11/05 10:07:21;;;;;;;11.57;3.28;;;;;;;-145.18;100.00;60484.78;5049513;28;20568;-72
2021/11/05 10:09:57;;;;;;;7.27;2.67;;;;;;;-145.18;100.00;60484.78;5056559;28;20032;-73
2021/11/05 10:12:29;;;;;;;7.43;2.87;;;;;;;-145.18;100.00;60484.78;5050208;28;20029;-71
2021/11/05 10:14:57;;;;;;;6.47;2.60;;;;;;;-145.18;100.00;60484.78;5055870;28;20047;-70
2021/11/05 10:17:23;;;;;;;9.60;2.40;;;;;;;-145.18;100.00;60484.78;5054707;28;20028;-71
2021/11/05 10:20:01;;;;;;;7.17;2.50;;;;;;;-145.18;100.00;60484.78;5057401;28;20048;-71
2021/11/05 10:22:35;;;;;;;8.40;2.33;;;;;;;-145.18;100.00;60484.78;5056123;28;20040;-72
2021/11/05 10:25:19;;;;;;;7.03;2.30;;;;;;;-145.18;100.00;60484.78;5057371;28;20465;-71
2021/11/05 10:27:48;;;;;;;9.60;2.40;;;;;;;-145.18;100.00;60484.78;5055233;28;20040;-71
2021/11/05 10:30:14;;;;;;;6.13;2.57;;;;;;;-145.18;100.00;60484.78;5056502;28;20032;-71
2021/11/05 10:32:53;;;;;;;5.83;2.40;;;;;;;-145.18;100.00;60484.78;5055312;28;20037;-71
2021/11/05 10:35:21;;;;;;;9.30;2.30;;;;;;;-145.18;100.00;60484.78;5055645;28;20051;-71
2021/11/05 10:37:53;;;;;;;6.90;2.10;;;;;;;-145.18;100.00;60484.78;5055997;28;20029;-71
2021/11/05 10:40:22;;;;;;;6.03;2.50;;;;;;;-145.18;100.00;60484.78;5051754;28;20059;-70
2021/11/05 10:42:48;;;;;;;5.43;1.97;;;;;;;-145.18;100.00;60484.78;5054385;28;20032;-70
2021/11/05 10:45:19;;;;;;;9.83;2.30;;;;;;;-145.18;100.00;60484.78;5054566;28;20047;-69
2021/11/05 10:47:54;;;;;;;7.53;2.63;;;;;;;-145.18;100.00;60484.78;5057741;28;20129;-70
2021/11/05 10:50:23;;;;;;;4.77;2.20;;;;;;;-145.18;100.00;60484.78;5052027;28;20355;-70
2021/11/05 10:53:11;;;;;;;8.43;2.30;;;;;;;-145.18;100.00;60484.78;5059480;28;20253;-70
2021/11/05 10:55:45;;;;;;;4.30;1.97;;;;;;;-145.18;100.00;60484.78;5059715;28;20101;-69